sensor_id;sensor_type;location;lat;lon;timestamp;P1;durP1;ratioP1;P2;durP2;ratioP2
64915;SDS011;51427;-27.442;153.014;2024-03-08T00:00:10;5.15;;;1.20;;
64915;SDS011;51427;-27.442;153.014;2024-03-08T00:02:40;6.60;;;1.52;;
64915;SDS011;51427;-27.442;153.014;2024-03-08T00:05:08;5.43;;;1.15;;
64915;SDS011;51427;-27.442;153.014;2024-03-08T00:07:36;5.05;;;1.30;;
64915;SDS011;51427;-27.442;153.014;2024-03-08T00:10:10;4.25;;;1.38;;
64915;SDS011;51427;-27.442;153.014;2024-03-08T00:12:39;4.05;;;1.05;;
64915;SDS011;51427;-27.442;153.014;2024-03-08T00:15:11;4.63;;;1.10;;
64915;SDS011;51427;-27.442;153.014;2024-03-08T00:17:40;4.88;;;0.90;;
64915;SDS011;51427;-27.442;153.014;2024-03-08T00:20:08;6.95;;;1.05;;
64915;SDS011;51427;-27.442;153.014;2024-03-08T00:22:36;5.30;;;1.17;;
64915;SDS011;51427;-27.442;153.014;2024-03-08T00:25:05;3.58;;;0.85;;
64915;SDS011;51427;-27.442;153.014;2024-03-08T00:27:37;3.55;;;1.05;;
64915;SDS011;51427;-27.442;153.014;2024-03-08T00:30:05;4.57;;;1.25;;
64915;SDS011;51427;-27.442;153.014;2024-03-08T00:32:34;3.08;;;0.82;;
64915;SDS011;51427;-27.442;153.014;2024-03-08T00:35:02;3.47;;;0.80;;
64915;SDS011;51427;-27.442;153.014;2024-03-08T00:37:33;8.07;;;1.10;;
64915;SDS011;51427;-27.442;153.014;2024-03-08T00:40:00;2.70;;;0.77;;
64915;SDS011;51427;-27.442;153.014;2024-03-08T00:42:28;3.60;;;0.80;;
64915;SDS011;51427;-27.442;153.014;2024-03-08T00:44:56;2.72;;;0.82;;
64915;SDS011;51427;-27.442;153.014;2024-03-08T00:47:23;4.82;;;1.20;;
64915;SDS011;51427;-27.442;153.014;2024-03-08T00:49:51;3.55;;;0.90;;
64915;SDS011;51427;-27.442;153.014;2024-03-08T00:52:19;2.70;;;1.00;;
64915;SDS011;51427;-27.442;153.014;2024-03-08T00:54:46;3.70;;;0.90;;
64915;SDS011;51427;-27.442;153.014;2024-03-08T00:57:14;5.28;;;0.80;;
64915;SDS011;51427;-27.442;153.014;2024-03-08T00:59:42;4.45;;;1.02;;
64915;SDS011;51427;-27.442;153.014;2024-03-08T01:02:09;6.63;;;0.70;;
64915;SDS011;51427;-27.442;153.014;2024-03-08T01:04:37;3.47;;;1.20;;
64915;SDS011;51427;-27.442;153.014;2024-03-08T01:07:05;4.25;;;0.80;;
64915;SDS011;51427;-27.442;153.014;2024-03-08T01:09:32;3.00;;;0.73;;
64915;SDS011;51427;-27.442;153.014;2024-03-08T01:12:00;5.70;;;0.70;;
64915;SDS011;51427;-27.442;153.014;2024-03-08T01:14:28;2.28;;;0.85;;
64915;SDS011;51427;-27.442;153.014;2024-03-08T01:16:56;3.53;;;0.75;;
64915;SDS011;51427;-27.442;153.014;2024-03-08T01:19:24;5.15;;;0.93;;
64915;SDS011;51427;-27.442;153.014;2024-03-08T01:21:52;5.53;;;1.25;;
64915;SDS011;51427;-27.442;153.014;2024-03-08T01:24:22;4.85;;;1.25;;
64915;SDS011;51427;-27.442;153.014;2024-03-08T01:26:51;2.10;;;0.70;;
64915;SDS011;51427;-27.442;153.014;2024-03-08T01:29:18;4.80;;;1.05;;
64915;SDS011;51427;-27.442;153.014;2024-03-08T01:31:46;3.40;;;1.17;;
64915;SDS011;51427;-27.442;153.014;2024-03-08T01:34:13;4.00;;;1.08;;
64915;SDS011;51427;-27.442;153.014;2024-03-08T01:36:41;6.03;;;1.00;;
64915;SDS011;51427;-27.442;153.014;2024-03-08T01:39:09;5.63;;;0.70;;
64915;SDS011;51427;-27.442;153.014;2024-03-08T01:41:37;3.10;;;1.00;;
64915;SDS011;51427;-27.442;153.014;2024-03-08T01:44:06;2.60;;;0.93;;
64915;SDS011;51427;-27.442;153.014;2024-03-08T01:46:33;3.58;;;0.88;;
64915;SDS011;51427;-27.442;153.014;2024-03-08T01:49:02;7.22;;;1.08;;
64915;SDS011;51427;-27.442;153.014;2024-03-08T01:51:29;6.00;;;1.23;;
64915;SDS011;51427;-27.442;153.014;2024-03-08T01:53:58;3.13;;;0.80;;
64915;SDS011;51427;-27.442;153.014;2024-03-08T01:56:27;2.60;;;0.90;;
64915;SDS011;51427;-27.442;153.014;2024-03-08T01:58:57;3.80;;;0.70;;
64915;SDS011;51427;-27.442;153.014;2024-03-08T02:01:26;3.30;;;0.90;;
64915;SDS011;51427;-27.442;153.014;2024-03-08T02:03:55;4.95;;;0.70;;
64915;SDS011;51427;-27.442;153.014;2024-03-08T02:06:22;3.70;;;0.82;;
64915;SDS011;51427;-27.442;153.014;2024-03-08T02:08:50;3.08;;;0.82;;
64915;SDS011;51427;-27.442;153.014;2024-03-08T02:11:19;3.55;;;0.90;;
64915;SDS011;51427;-27.442;153.014;2024-03-08T02:13:47;3.20;;;0.77;;
64915;SDS011;51427;-27.442;153.014;2024-03-08T02:16:19;7.53;;;1.20;;
64915;SDS011;51427;-27.442;153.014;2024-03-08T02:18:48;6.40;;;1.58;;
64915;SDS011;51427;-27.442;153.014;2024-03-08T02:21:19;4.43;;;0.88;;
64915;SDS011;51427;-27.442;153.014;2024-03-08T02:23:47;4.75;;;1.10;;
64915;SDS011;51427;-27.442;153.014;2024-03-08T02:26:17;4.25;;;1.10;;
64915;SDS011;51427;-27.442;153.014;2024-03-08T02:28:45;3.30;;;1.10;;
64915;SDS011;51427;-27.442;153.014;2024-03-08T02:31:13;4.82;;;0.73;;
64915;SDS011;51427;-27.442;153.014;2024-03-08T02:33:42;7.03;;;1.00;;
64915;SDS011;51427;-27.442;153.014;2024-03-08T02:36:09;5.60;;;1.25;;
64915;SDS011;51427;-27.442;153.014;2024-03-08T02:38:38;5.32;;;1.55;;
64915;SDS011;51427;-27.442;153.014;2024-03-08T02:41:09;2.75;;;0.85;;
64915;SDS011;51427;-27.442;153.014;2024-03-08T02:43:36;4.15;;;1.15;;
64915;SDS011;51427;-27.442;153.014;2024-03-08T02:46:04;4.97;;;1.25;;
64915;SDS011;51427;-27.442;153.014;2024-03-08T02:48:31;5.30;;;1.02;;
64915;SDS011;51427;-27.442;153.014;2024-03-08T02:50:59;4.72;;;1.25;;
64915;SDS011;51427;-27.442;153.014;2024-03-08T02:53:28;2.97;;;0.70;;
64915;SDS011;51427;-27.442;153.014;2024-03-08T02:55:55;4.97;;;1.27;;
64915;SDS011;51427;-27.442;153.014;2024-03-08T02:58:23;4.70;;;1.02;;
64915;SDS011;51427;-27.442;153.014;2024-03-08T03:00:50;3.15;;;0.70;;
64915;SDS011;51427;-27.442;153.014;2024-03-08T03:03:18;3.58;;;0.80;;
64915;SDS011;51427;-27.442;153.014;2024-03-08T03:05:46;2.42;;;0.73;;
64915;SDS011;51427;-27.442;153.014;2024-03-08T03:08:13;4.30;;;0.68;;
64915;SDS011;51427;-27.442;153.014;2024-03-08T03:10:42;3.97;;;1.00;;
64915;SDS011;51427;-27.442;153.014;2024-03-08T03:13:10;3.75;;;1.05;;
64915;SDS011;51427;-27.442;153.014;2024-03-08T03:15:40;3.10;;;0.80;;
64915;SDS011;51427;-27.442;153.014;2024-03-08T03:18:10;2.58;;;0.75;;
64915;SDS011;51427;-27.442;153.014;2024-03-08T03:20:38;3.13;;;0.68;;
64915;SDS011;51427;-27.442;153.014;2024-03-08T03:23:08;2.35;;;0.60;;
64915;SDS011;51427;-27.442;153.014;2024-03-08T03:25:39;5.22;;;1.20;;
64915;SDS011;51427;-27.442;153.014;2024-03-08T03:28:07;2.63;;;0.80;;
64915;SDS011;51427;-27.442;153.014;2024-03-08T03:30:36;6.45;;;1.02;;
64915;SDS011;51427;-27.442;153.014;2024-03-08T03:33:05;5.78;;;0.90;;
64915;SDS011;51427;-27.442;153.014;2024-03-08T03:35:32;6.45;;;0.85;;
64915;SDS011;51427;-27.442;153.014;2024-03-08T03:38:01;5.35;;;1.10;;
64915;SDS011;51427;-27.442;153.014;2024-03-08T03:40:29;2.67;;;0.80;;
64915;SDS011;51427;-27.442;153.014;2024-03-08T03:42:57;6.82;;;1.00;;
64915;SDS011;51427;-27.442;153.014;2024-03-08T03:45:25;4.70;;;1.10;;
64915;SDS011;51427;-27.442;153.014;2024-03-08T03:47:52;4.68;;;0.85;;
64915;SDS011;51427;-27.442;153.014;2024-03-08T03:50:20;3.83;;;0.77;;
64915;SDS011;51427;-27.442;153.014;2024-03-08T03:52:49;2.92;;;0.68;;
64915;SDS011;51427;-27.442;153.014;2024-03-08T03:55:17;2.05;;;0.60;;
64915;SDS011;51427;-27.442;153.014;2024-03-08T03:57:45;4.78;;;0.93;;
64915;SDS011;51427;-27.442;153.014;2024-03-08T04:00:13;2.30;;;0.60;;
64915;SDS011;51427;-27.442;153.014;2024-03-08T04:02:41;2.85;;;0.55;;
64915;SDS011;51427;-27.442;153.014;2024-03-08T04:05:09;4.10;;;0.60;;
64915;SDS011;51427;-27.442;153.014;2024-03-08T04:07:37;2.58;;;0.75;;
64915;SDS011;51427;-27.442;153.014;2024-03-08T04:10:06;2.40;;;0.90;;
64915;SDS011;51427;-27.442;153.014;2024-03-08T04:12:35;4.47;;;1.15;;
64915;SDS011;51427;-27.442;153.014;2024-03-08T04:15:04;3.72;;;0.98;;
64915;SDS011;51427;-27.442;153.014;2024-03-08T04:17:33;5.05;;;0.82;;
64915;SDS011;51427;-27.442;153.014;2024-03-08T04:20:04;3.03;;;0.98;;
64915;SDS011;51427;-27.442;153.014;2024-03-08T04:22:36;4.82;;;0.90;;
64915;SDS011;51427;-27.442;153.014;2024-03-08T04:25:05;4.82;;;0.90;;
64915;SDS011;51427;-27.442;153.014;2024-03-08T04:27:33;5.82;;;1.02;;
64915;SDS011;51427;-27.442;153.014;2024-03-08T04:30:02;4.13;;;0.75;;
64915;SDS011;51427;-27.442;153.014;2024-03-08T04:32:33;5.28;;;1.20;;
64915;SDS011;51427;-27.442;153.014;2024-03-08T04:35:01;6.15;;;1.48;;
64915;SDS011;51427;-27.442;153.014;2024-03-08T04:37:29;2.08;;;1.00;;
64915;SDS011;51427;-27.442;153.014;2024-03-08T04:39:57;6.53;;;1.80;;
64915;SDS011;51427;-27.442;153.014;2024-03-08T04:42:25;6.97;;;1.60;;
64915;SDS011;51427;-27.442;153.014;2024-03-08T04:44:55;3.38;;;1.02;;
64915;SDS011;51427;-27.442;153.014;2024-03-08T04:47:23;9.65;;;1.08;;
64915;SDS011;51427;-27.442;153.014;2024-03-08T04:49:50;5.63;;;0.82;;
64915;SDS011;51427;-27.442;153.014;2024-03-08T04:52:18;5.25;;;1.38;;
64915;SDS011;51427;-27.442;153.014;2024-03-08T04:54:47;5.75;;;1.30;;
64915;SDS011;51427;-27.442;153.014;2024-03-08T04:57:15;3.50;;;1.10;;
64915;SDS011;51427;-27.442;153.014;2024-03-08T04:59:45;3.70;;;1.33;;
64915;SDS011;51427;-27.442;153.014;2024-03-08T05:02:13;4.03;;;1.00;;
64915;SDS011;51427;-27.442;153.014;2024-03-08T05:04:41;5.57;;;0.93;;
64915;SDS011;51427;-27.442;153.014;2024-03-08T05:07:09;3.65;;;0.88;;
64915;SDS011;51427;-27.442;153.014;2024-03-08T05:09:37;4.05;;;1.17;;
64915;SDS011;51427;-27.442;153.014;2024-03-08T05:12:06;4.03;;;0.73;;
64915;SDS011;51427;-27.442;153.014;2024-03-08T05:14:34;3.55;;;0.70;;
64915;SDS011;51427;-27.442;153.014;2024-03-08T05:17:01;2.03;;;0.63;;
64915;SDS011;51427;-27.442;153.014;2024-03-08T05:19:29;4.28;;;1.00;;
64915;SDS011;51427;-27.442;153.014;2024-03-08T05:21:56;1.55;;;0.43;;
64915;SDS011;51427;-27.442;153.014;2024-03-08T05:24:24;3.63;;;0.88;;
64915;SDS011;51427;-27.442;153.014;2024-03-08T05:26:52;6.05;;;1.10;;
64915;SDS011;51427;-27.442;153.014;2024-03-08T05:29:19;3.85;;;0.88;;
64915;SDS011;51427;-27.442;153.014;2024-03-08T05:31:50;3.00;;;0.85;;
64915;SDS011;51427;-27.442;153.014;2024-03-08T05:34:18;6.13;;;1.00;;
64915;SDS011;51427;-27.442;153.014;2024-03-08T05:36:48;6.95;;;1.27;;
64915;SDS011;51427;-27.442;153.014;2024-03-08T05:39:16;3.33;;;0.80;;
64915;SDS011;51427;-27.442;153.014;2024-03-08T05:41:45;4.13;;;0.70;;
64915;SDS011;51427;-27.442;153.014;2024-03-08T05:44:13;4.07;;;1.10;;
64915;SDS011;51427;-27.442;153.014;2024-03-08T05:46:44;3.83;;;0.85;;
64915;SDS011;51427;-27.442;153.014;2024-03-08T05:49:14;6.70;;;1.20;;
64915;SDS011;51427;-27.442;153.014;2024-03-08T05:51:42;5.82;;;0.98;;
64915;SDS011;51427;-27.442;153.014;2024-03-08T05:54:10;2.35;;;0.85;;
64915;SDS011;51427;-27.442;153.014;2024-03-08T05:56:39;3.67;;;0.80;;
64915;SDS011;51427;-27.442;153.014;2024-03-08T05:59:11;3.65;;;0.90;;
64915;SDS011;51427;-27.442;153.014;2024-03-08T06:01:39;2.75;;;0.82;;
64915;SDS011;51427;-27.442;153.014;2024-03-08T06:04:07;2.72;;;0.93;;
64915;SDS011;51427;-27.442;153.014;2024-03-08T06:06:35;3.72;;;0.63;;
64915;SDS011;51427;-27.442;153.014;2024-03-08T06:09:03;6.05;;;0.70;;
64915;SDS011;51427;-27.442;153.014;2024-03-08T06:11:43;2.35;;;0.60;;
64915;SDS011;51427;-27.442;153.014;2024-03-08T06:14:10;5.95;;;1.10;;
64915;SDS011;51427;-27.442;153.014;2024-03-08T06:16:38;4.95;;;1.00;;
64915;SDS011;51427;-27.442;153.014;2024-03-08T06:19:06;1.45;;;0.70;;
64915;SDS011;51427;-27.442;153.014;2024-03-08T06:21:33;3.20;;;0.60;;
64915;SDS011;51427;-27.442;153.014;2024-03-08T06:24:01;5.35;;;0.95;;
64915;SDS011;51427;-27.442;153.014;2024-03-08T06:26:29;5.80;;;1.30;;
64915;SDS011;51427;-27.442;153.014;2024-03-08T06:28:57;3.30;;;0.80;;
64915;SDS011;51427;-27.442;153.014;2024-03-08T06:31:25;2.55;;;0.50;;
64915;SDS011;51427;-27.442;153.014;2024-03-08T06:33:52;1.65;;;0.55;;
64915;SDS011;51427;-27.442;153.014;2024-03-08T06:36:23;4.03;;;1.10;;
64915;SDS011;51427;-27.442;153.014;2024-03-08T06:38:51;4.20;;;0.93;;
64915;SDS011;51427;-27.442;153.014;2024-03-08T06:41:19;5.70;;;1.38;;
64915;SDS011;51427;-27.442;153.014;2024-03-08T06:43:47;4.80;;;0.88;;
64915;SDS011;51427;-27.442;153.014;2024-03-08T06:46:17;4.70;;;0.93;;
64915;SDS011;51427;-27.442;153.014;2024-03-08T06:48:46;2.55;;;0.75;;
64915;SDS011;51427;-27.442;153.014;2024-03-08T06:51:14;4.88;;;1.00;;
64915;SDS011;51427;-27.442;153.014;2024-03-08T06:53:42;5.38;;;0.95;;
64915;SDS011;51427;-27.442;153.014;2024-03-08T06:56:10;4.18;;;0.90;;
64915;SDS011;51427;-27.442;153.014;2024-03-08T06:58:38;4.30;;;0.70;;
64915;SDS011;51427;-27.442;153.014;2024-03-08T07:01:05;3.80;;;0.90;;
64915;SDS011;51427;-27.442;153.014;2024-03-08T07:03:41;3.70;;;1.00;;
64915;SDS011;51427;-27.442;153.014;2024-03-08T07:06:10;4.93;;;1.30;;
64915;SDS011;51427;-27.442;153.014;2024-03-08T07:08:40;10.30;;;1.48;;
64915;SDS011;51427;-27.442;153.014;2024-03-08T07:11:09;5.63;;;1.65;;
64915;SDS011;51427;-27.442;153.014;2024-03-08T07:13:37;5.70;;;1.10;;
64915;SDS011;51427;-27.442;153.014;2024-03-08T07:16:05;6.47;;;1.33;;
64915;SDS011;51427;-27.442;153.014;2024-03-08T07:18:33;6.20;;;1.45;;
64915;SDS011;51427;-27.442;153.014;2024-03-08T07:21:05;9.70;;;1.75;;
64915;SDS011;51427;-27.442;153.014;2024-03-08T07:23:33;5.43;;;1.33;;
64915;SDS011;51427;-27.442;153.014;2024-03-08T07:26:23;3.22;;;1.13;;
64915;SDS011;51427;-27.442;153.014;2024-03-08T07:28:51;5.85;;;1.15;;
64915;SDS011;51427;-27.442;153.014;2024-03-08T07:31:20;5.70;;;1.35;;
64915;SDS011;51427;-27.442;153.014;2024-03-08T07:34:03;4.97;;;0.90;;
64915;SDS011;51427;-27.442;153.014;2024-03-08T07:36:33;6.28;;;0.90;;
64915;SDS011;51427;-27.442;153.014;2024-03-08T07:39:01;6.10;;;0.90;;
64915;SDS011;51427;-27.442;153.014;2024-03-08T07:41:31;6.35;;;1.00;;
64915;SDS011;51427;-27.442;153.014;2024-03-08T07:44:02;4.80;;;0.95;;
64915;SDS011;51427;-27.442;153.014;2024-03-08T07:46:29;6.38;;;1.45;;
64915;SDS011;51427;-27.442;153.014;2024-03-08T07:48:57;9.43;;;1.55;;
64915;SDS011;51427;-27.442;153.014;2024-03-08T07:51:25;8.88;;;1.75;;
64915;SDS011;51427;-27.442;153.014;2024-03-08T07:53:53;5.18;;;1.35;;
64915;SDS011;51427;-27.442;153.014;2024-03-08T07:56:21;7.30;;;1.45;;
64915;SDS011;51427;-27.442;153.014;2024-03-08T07:58:48;4.50;;;1.40;;
64915;SDS011;51427;-27.442;153.014;2024-03-08T08:01:17;4.90;;;1.05;;
64915;SDS011;51427;-27.442;153.014;2024-03-08T08:03:47;4.15;;;1.02;;
64915;SDS011;51427;-27.442;153.014;2024-03-08T08:06:15;5.28;;;1.10;;
64915;SDS011;51427;-27.442;153.014;2024-03-08T08:08:44;6.82;;;1.65;;
64915;SDS011;51427;-27.442;153.014;2024-03-08T08:11:12;5.55;;;1.42;;
64915;SDS011;51427;-27.442;153.014;2024-03-08T08:13:41;4.55;;;1.30;;
64915;SDS011;51427;-27.442;153.014;2024-03-08T08:16:09;8.02;;;1.38;;
64915;SDS011;51427;-27.442;153.014;2024-03-08T08:18:38;4.60;;;1.05;;
64915;SDS011;51427;-27.442;153.014;2024-03-08T08:21:06;9.70;;;1.83;;
64915;SDS011;51427;-27.442;153.014;2024-03-08T08:23:34;7.03;;;1.52;;
64915;SDS011;51427;-27.442;153.014;2024-03-08T08:26:02;5.45;;;1.42;;
64915;SDS011;51427;-27.442;153.014;2024-03-08T08:28:30;5.57;;;1.27;;
64915;SDS011;51427;-27.442;153.014;2024-03-08T08:30:58;4.63;;;1.27;;
64915;SDS011;51427;-27.442;153.014;2024-03-08T08:33:25;8.35;;;1.55;;
64915;SDS011;51427;-27.442;153.014;2024-03-08T08:35:53;6.35;;;1.40;;
64915;SDS011;51427;-27.442;153.014;2024-03-08T08:38:21;4.53;;;1.50;;
64915;SDS011;51427;-27.442;153.014;2024-03-08T08:40:49;5.50;;;1.35;;
64915;SDS011;51427;-27.442;153.014;2024-03-08T08:43:16;6.65;;;1.30;;
64915;SDS011;51427;-27.442;153.014;2024-03-08T08:45:47;7.32;;;1.25;;
64915;SDS011;51427;-27.442;153.014;2024-03-08T08:48:16;9.32;;;1.65;;
64915;SDS011;51427;-27.442;153.014;2024-03-08T08:50:44;6.57;;;1.30;;
64915;SDS011;51427;-27.442;153.014;2024-03-08T08:53:12;7.85;;;1.70;;
64915;SDS011;51427;-27.442;153.014;2024-03-08T08:55:40;9.98;;;1.98;;
64915;SDS011;51427;-27.442;153.014;2024-03-08T08:58:08;8.38;;;1.38;;
64915;SDS011;51427;-27.442;153.014;2024-03-08T09:00:37;11.60;;;1.98;;
64915;SDS011;51427;-27.442;153.014;2024-03-08T09:03:05;6.25;;;1.58;;
64915;SDS011;51427;-27.442;153.014;2024-03-08T09:05:36;6.47;;;1.77;;
64915;SDS011;51427;-27.442;153.014;2024-03-08T09:08:04;5.97;;;1.67;;
64915;SDS011;51427;-27.442;153.014;2024-03-08T09:10:33;5.97;;;1.75;;
64915;SDS011;51427;-27.442;153.014;2024-03-08T09:13:01;8.73;;;1.80;;
64915;SDS011;51427;-27.442;153.014;2024-03-08T09:15:30;7.25;;;1.70;;
64915;SDS011;51427;-27.442;153.014;2024-03-08T09:17:57;10.25;;;2.15;;
64915;SDS011;51427;-27.442;153.014;2024-03-08T09:20:25;10.45;;;2.20;;
64915;SDS011;51427;-27.442;153.014;2024-03-08T09:22:53;5.55;;;1.75;;
64915;SDS011;51427;-27.442;153.014;2024-03-08T09:25:20;6.57;;;1.20;;
64915;SDS011;51427;-27.442;153.014;2024-03-08T09:27:48;8.80;;;1.80;;
64915;SDS011;51427;-27.442;153.014;2024-03-08T09:30:16;6.68;;;1.50;;
64915;SDS011;51427;-27.442;153.014;2024-03-08T09:32:43;7.93;;;1.80;;
64915;SDS011;51427;-27.442;153.014;2024-03-08T09:35:12;4.82;;;1.48;;
64915;SDS011;51427;-27.442;153.014;2024-03-08T09:37:39;9.13;;;1.60;;
64915;SDS011;51427;-27.442;153.014;2024-03-08T09:40:07;8.57;;;1.60;;
64915;SDS011;51427;-27.442;153.014;2024-03-08T09:42:35;8.63;;;2.00;;
64915;SDS011;51427;-27.442;153.014;2024-03-08T09:45:09;9.90;;;2.28;;
64915;SDS011;51427;-27.442;153.014;2024-03-08T09:47:41;9.07;;;1.90;;
64915;SDS011;51427;-27.442;153.014;2024-03-08T09:50:10;8.77;;;1.80;;
64915;SDS011;51427;-27.442;153.014;2024-03-08T09:52:47;4.43;;;1.23;;
64915;SDS011;51427;-27.442;153.014;2024-03-08T09:55:16;6.85;;;1.80;;
64915;SDS011;51427;-27.442;153.014;2024-03-08T09:57:47;6.85;;;1.67;;
64915;SDS011;51427;-27.442;153.014;2024-03-08T10:00:34;8.43;;;1.58;;
64915;SDS011;51427;-27.442;153.014;2024-03-08T10:03:02;7.47;;;1.63;;
64915;SDS011;51427;-27.442;153.014;2024-03-08T10:05:31;7.93;;;2.03;;
64915;SDS011;51427;-27.442;153.014;2024-03-08T10:07:59;5.47;;;1.42;;
64915;SDS011;51427;-27.442;153.014;2024-03-08T10:10:26;5.55;;;1.30;;
64915;SDS011;51427;-27.442;153.014;2024-03-08T10:12:55;5.55;;;1.48;;
64915;SDS011;51427;-27.442;153.014;2024-03-08T10:15:23;6.53;;;1.38;;
64915;SDS011;51427;-27.442;153.014;2024-03-08T10:17:55;7.65;;;1.45;;
64915;SDS011;51427;-27.442;153.014;2024-03-08T10:20:23;8.00;;;1.67;;
64915;SDS011;51427;-27.442;153.014;2024-03-08T10:22:52;7.25;;;1.70;;
64915;SDS011;51427;-27.442;153.014;2024-03-08T10:25:20;5.53;;;1.05;;
64915;SDS011;51427;-27.442;153.014;2024-03-08T10:27:50;4.35;;;1.23;;
64915;SDS011;51427;-27.442;153.014;2024-03-08T10:30:18;11.00;;;1.67;;
64915;SDS011;51427;-27.442;153.014;2024-03-08T10:32:47;5.20;;;1.48;;
64915;SDS011;51427;-27.442;153.014;2024-03-08T10:35:15;7.32;;;1.98;;
64915;SDS011;51427;-27.442;153.014;2024-03-08T10:37:47;6.45;;;1.80;;
64915;SDS011;51427;-27.442;153.014;2024-03-08T10:40:25;5.03;;;1.25;;
64915;SDS011;51427;-27.442;153.014;2024-03-08T10:42:57;5.93;;;1.50;;
64915;SDS011;51427;-27.442;153.014;2024-03-08T10:45:36;5.90;;;1.67;;
64915;SDS011;51427;-27.442;153.014;2024-03-08T10:48:22;6.15;;;1.35;;
64915;SDS011;51427;-27.442;153.014;2024-03-08T10:50:59;5.90;;;1.48;;
64915;SDS011;51427;-27.442;153.014;2024-03-08T10:53:29;6.25;;;1.58;;
64915;SDS011;51427;-27.442;153.014;2024-03-08T10:55:57;7.43;;;2.03;;
64915;SDS011;51427;-27.442;153.014;2024-03-08T10:58:26;6.47;;;1.38;;
64915;SDS011;51427;-27.442;153.014;2024-03-08T11:00:55;8.02;;;1.38;;
64915;SDS011;51427;-27.442;153.014;2024-03-08T11:08:49;6.97;;;1.63;;
64915;SDS011;51427;-27.442;153.014;2024-03-08T11:11:27;7.43;;;1.38;;
64915;SDS011;51427;-27.442;153.014;2024-03-08T11:14:01;7.03;;;1.60;;
64915;SDS011;51427;-27.442;153.014;2024-03-08T11:19:01;7.35;;;1.90;;
64915;SDS011;51427;-27.442;153.014;2024-03-08T11:22:00;4.57;;;0.90;;
64915;SDS011;51427;-27.442;153.014;2024-03-08T11:24:38;6.60;;;1.30;;
64915;SDS011;51427;-27.442;153.014;2024-03-08T11:27:06;7.18;;;1.25;;
64915;SDS011;51427;-27.442;153.014;2024-03-08T11:29:35;7.28;;;1.42;;
64915;SDS011;51427;-27.442;153.014;2024-03-08T11:32:15;5.97;;;1.02;;
64915;SDS011;51427;-27.442;153.014;2024-03-08T11:34:48;9.80;;;1.27;;
64915;SDS011;51427;-27.442;153.014;2024-03-08T11:37:17;6.43;;;1.35;;
64915;SDS011;51427;-27.442;153.014;2024-03-08T11:39:47;5.45;;;1.27;;
64915;SDS011;51427;-27.442;153.014;2024-03-08T11:42:15;8.35;;;1.70;;
64915;SDS011;51427;-27.442;153.014;2024-03-08T11:44:44;6.80;;;2.22;;
64915;SDS011;51427;-27.442;153.014;2024-03-08T11:47:14;7.05;;;2.40;;
64915;SDS011;51427;-27.442;153.014;2024-03-08T11:49:42;7.68;;;2.10;;
64915;SDS011;51427;-27.442;153.014;2024-03-08T11:52:17;6.80;;;1.70;;
64915;SDS011;51427;-27.442;153.014;2024-03-08T11:54:51;4.45;;;2.00;;
64915;SDS011;51427;-27.442;153.014;2024-03-08T11:57:23;8.13;;;2.30;;
64915;SDS011;51427;-27.442;153.014;2024-03-08T11:59:52;8.40;;;2.35;;
64915;SDS011;51427;-27.442;153.014;2024-03-08T12:02:24;10.55;;;2.42;;
64915;SDS011;51427;-27.442;153.014;2024-03-08T12:04:56;6.85;;;2.15;;
64915;SDS011;51427;-27.442;153.014;2024-03-08T12:07:29;5.78;;;2.10;;
64915;SDS011;51427;-27.442;153.014;2024-03-08T12:10:17;6.07;;;2.15;;
64915;SDS011;51427;-27.442;153.014;2024-03-08T12:12:48;7.40;;;1.80;;
64915;SDS011;51427;-27.442;153.014;2024-03-08T12:15:18;5.88;;;1.92;;
64915;SDS011;51427;-27.442;153.014;2024-03-08T12:17:53;7.30;;;1.92;;
64915;SDS011;51427;-27.442;153.014;2024-03-08T12:22:56;3.65;;;1.95;;
64915;SDS011;51427;-27.442;153.014;2024-03-08T12:25:31;6.45;;;1.80;;
64915;SDS011;51427;-27.442;153.014;2024-03-08T12:28:08;5.68;;;1.80;;
64915;SDS011;51427;-27.442;153.014;2024-03-08T12:30:51;6.15;;;2.13;;
64915;SDS011;51427;-27.442;153.014;2024-03-08T12:33:21;5.40;;;2.10;;
64915;SDS011;51427;-27.442;153.014;2024-03-08T12:35:50;7.25;;;2.35;;
64915;SDS011;51427;-27.442;153.014;2024-03-08T12:38:20;8.00;;;2.55;;
64915;SDS011;51427;-27.442;153.014;2024-03-08T12:41:00;8.60;;;3.03;;
64915;SDS011;51427;-27.442;153.014;2024-03-08T12:43:28;4.45;;;2.58;;
64915;SDS011;51427;-27.442;153.014;2024-03-08T12:45:57;8.43;;;2.60;;
64915;SDS011;51427;-27.442;153.014;2024-03-08T12:48:25;6.07;;;2.17;;
64915;SDS011;51427;-27.442;153.014;2024-03-08T12:50:54;7.35;;;2.42;;
64915;SDS011;51427;-27.442;153.014;2024-03-08T12:53:21;8.25;;;3.20;;
64915;SDS011;51427;-27.442;153.014;2024-03-08T12:55:50;6.57;;;2.63;;
64915;SDS011;51427;-27.442;153.014;2024-03-08T12:58:18;4.88;;;2.60;;
64915;SDS011;51427;-27.442;153.014;2024-03-08T13:00:47;9.88;;;2.97;;
64915;SDS011;51427;-27.442;153.014;2024-03-08T13:03:14;5.18;;;2.65;;
64915;SDS011;51427;-27.442;153.014;2024-03-08T13:05:42;6.15;;;2.40;;
64915;SDS011;51427;-27.442;153.014;2024-03-08T13:08:11;5.05;;;2.17;;
64915;SDS011;51427;-27.442;153.014;2024-03-08T13:10:39;10.02;;;2.42;;
64915;SDS011;51427;-27.442;153.014;2024-03-08T13:13:12;6.07;;;2.10;;
64915;SDS011;51427;-27.442;153.014;2024-03-08T13:15:43;6.05;;;2.25;;
64915;SDS011;51427;-27.442;153.014;2024-03-08T13:18:11;9.27;;;2.75;;
64915;SDS011;51427;-27.442;153.014;2024-03-08T13:20:41;8.07;;;2.78;;
64915;SDS011;51427;-27.442;153.014;2024-03-08T13:23:15;6.18;;;2.63;;
64915;SDS011;51427;-27.442;153.014;2024-03-08T13:25:43;6.03;;;2.47;;
64915;SDS011;51427;-27.442;153.014;2024-03-08T13:28:13;6.00;;;2.05;;
64915;SDS011;51427;-27.442;153.014;2024-03-08T13:30:41;9.05;;;1.90;;
64915;SDS011;51427;-27.442;153.014;2024-03-08T13:33:10;6.00;;;1.63;;
64915;SDS011;51427;-27.442;153.014;2024-03-08T13:35:39;3.63;;;1.50;;
64915;SDS011;51427;-27.442;153.014;2024-03-08T13:38:07;5.75;;;1.55;;
64915;SDS011;51427;-27.442;153.014;2024-03-08T13:40:40;7.20;;;1.92;;
64915;SDS011;51427;-27.442;153.014;2024-03-08T13:43:08;3.00;;;1.42;;
64915;SDS011;51427;-27.442;153.014;2024-03-08T13:45:36;4.65;;;2.13;;
64915;SDS011;51427;-27.442;153.014;2024-03-08T13:48:04;5.95;;;1.80;;
64915;SDS011;51427;-27.442;153.014;2024-03-08T13:50:32;5.22;;;1.42;;
64915;SDS011;51427;-27.442;153.014;2024-03-08T13:53:00;7.10;;;1.52;;
64915;SDS011;51427;-27.442;153.014;2024-03-08T13:55:29;6.32;;;1.05;;
64915;SDS011;51427;-27.442;153.014;2024-03-08T13:57:59;4.57;;;1.20;;
64915;SDS011;51427;-27.442;153.014;2024-03-08T14:00:28;9.00;;;1.52;;
64915;SDS011;51427;-27.442;153.014;2024-03-08T14:02:59;7.15;;;2.22;;
64915;SDS011;51427;-27.442;153.014;2024-03-08T14:05:26;6.75;;;3.13;;
64915;SDS011;51427;-27.442;153.014;2024-03-08T14:07:58;5.80;;;2.90;;
64915;SDS011;51427;-27.442;153.014;2024-03-08T14:10:26;6.47;;;2.35;;
64915;SDS011;51427;-27.442;153.014;2024-03-08T14:12:54;6.30;;;2.50;;
64915;SDS011;51427;-27.442;153.014;2024-03-08T14:15:22;6.75;;;2.63;;
64915;SDS011;51427;-27.442;153.014;2024-03-08T14:17:54;6.03;;;2.50;;
64915;SDS011;51427;-27.442;153.014;2024-03-08T14:20:23;6.63;;;2.67;;
64915;SDS011;51427;-27.442;153.014;2024-03-08T14:22:54;5.85;;;2.60;;
64915;SDS011;51427;-27.442;153.014;2024-03-08T14:25:23;3.90;;;2.28;;
64915;SDS011;51427;-27.442;153.014;2024-03-08T14:27:51;4.72;;;1.85;;
64915;SDS011;51427;-27.442;153.014;2024-03-08T14:30:20;6.25;;;2.92;;